sensor_id;sensor_type;location;lat;lon;timestamp;pressure;altitude;pressure_sealevel;temperature;humidity
21240;BME280;10778;48.962;9.018;2022-12-18T00:01:17;100313.81;;;-12.93;92.61
21240;BME280;10778;48.962;9.018;2022-12-18T00:03:44;100327.16;;;-12.99;93.94
21240;BME280;10778;48.962;9.018;2022-12-18T00:06:11;100331.28;;;-13.03;94.28
21240;BME280;10778;48.962;9.018;2022-12-18T00:08:37;100328.72;;;-13.04;94.48
21240;BME280;10778;48.962;9.018;2022-12-18T00:11:04;100322.88;;;-13.02;94.53
21240;BME280;10778;48.962;9.018;2022-12-18T00:13:31;100310.13;;;-13.05;94.21
21240;BME280;10778;48.962;9.018;2022-12-18T00:16:02;100305.06;;;-13.05;93.98
21240;BME280;10778;48.962;9.018;2022-12-18T00:18:28;100305.06;;;-13.05;94.35
21240;BME280;10778;48.962;9.018;2022-12-18T00:20:58;100316.09;;;-13.03;95.67
21240;BME280;10778;48.962;9.018;2022-12-18T00:23:26;100325.41;;;-13.02;95.87
21240;BME280;10778;48.962;9.018;2022-12-18T00:25:52;100335.44;;;-13.06;95.40
21240;BME280;10778;48.962;9.018;2022-12-18T00:28:18;100332.97;;;-13.03;95.64
21240;BME280;10778;48.962;9.018;2022-12-18T00:30:45;100336.41;;;-13.01;95.40
21240;BME280;10778;48.962;9.018;2022-12-18T00:33:11;100327.84;;;-13.06;94.95
21240;BME280;10778;48.962;9.018;2022-12-18T00:35:37;100328.81;;;-13.01;96.11
21240;BME280;10778;48.962;9.018;2022-12-18T00:38:03;100340.91;;;-12.91;96.97
21240;BME280;10778;48.962;9.018;2022-12-18T00:40:31;100339.09;;;-12.95;96.78
21240;BME280;10778;48.962;9.018;2022-12-18T00:42:57;100332.38;;;-12.93;96.94
21240;BME280;10778;48.962;9.018;2022-12-18T00:45:25;100331.66;;;-12.89;96.70
21240;BME280;10778;48.962;9.018;2022-12-18T00:47:51;100328.38;;;-12.84;97.11
21240;BME280;10778;48.962;9.018;2022-12-18T00:50:18;100328.31;;;-12.86;96.79
21240;BME280;10778;48.962;9.018;2022-12-18T00:52:44;100324.75;;;-12.94;95.94
21240;BME280;10778;48.962;9.018;2022-12-18T00:55:11;100330.44;;;-13.03;95.85
21240;BME280;10778;48.962;9.018;2022-12-18T00:57:37;100327.00;;;-13.05;95.38
21240;BME280;10778;48.962;9.018;2022-12-18T01:00:05;100323.41;;;-13.13;94.82
21240;BME280;10778;48.962;9.018;2022-12-18T01:02:31;100326.00;;;-13.10;95.09
21240;BME280;10778;48.962;9.018;2022-12-18T01:04:57;100327.69;;;-13.11;94.58
21240;BME280;10778;48.962;9.018;2022-12-18T01:07:23;100327.66;;;-13.12;95.06
21240;BME280;10778;48.962;9.018;2022-12-18T01:09:49;100332.56;;;-13.19;94.98
21240;BME280;10778;48.962;9.018;2022-12-18T01:12:15;100340.84;;;-13.24;94.69
21240;BME280;10778;48.962;9.018;2022-12-18T01:14:41;100336.75;;;-13.19;94.89
21240;BME280;10778;48.962;9.018;2022-12-18T01:17:07;100337.72;;;-13.16;95.62
21240;BME280;10778;48.962;9.018;2022-12-18T01:19:33;100343.50;;;-13.20;94.82
21240;BME280;10778;48.962;9.018;2022-12-18T01:22:00;100353.72;;;-13.17;94.77
21240;BME280;10778;48.962;9.018;2022-12-18T01:24:26;100335.09;;;-13.19;94.76
21240;BME280;10778;48.962;9.018;2022-12-18T01:26:51;100327.44;;;-13.20;95.00
21240;BME280;10778;48.962;9.018;2022-12-18T01:29:18;100332.34;;;-13.26;93.92
21240;BME280;10778;48.962;9.018;2022-12-18T01:31:44;100336.56;;;-13.27;94.57
21240;BME280;10778;48.962;9.018;2022-12-18T01:34:10;100335.88;;;-13.21;94.67
21240;BME280;10778;48.962;9.018;2022-12-18T01:36:37;100337.16;;;-13.36;94.23
21240;BME280;10778;48.962;9.018;2022-12-18T01:39:07;100341.38;;;-13.36;94.35
21240;BME280;10778;48.962;9.018;2022-12-18T01:41:34;100359.84;;;-13.40;94.34
21240;BME280;10778;48.962;9.018;2022-12-18T01:47:17;100340.63;;;-13.34;94.28
21240;BME280;10778;48.962;9.018;2022-12-18T01:49:44;100339.81;;;-13.31;95.19
21240;BME280;10778;48.962;9.018;2022-12-18T01:52:10;100324.97;;;-13.19;95.85
21240;BME280;10778;48.962;9.018;2022-12-18T01:54:36;100332.78;;;-13.11;96.35
21240;BME280;10778;48.962;9.018;2022-12-18T01:57:03;100339.47;;;-13.13;96.35
21240;BME280;10778;48.962;9.018;2022-12-18T01:59:31;100340.25;;;-13.16;96.27
21240;BME280;10778;48.962;9.018;2022-12-18T02:01:59;100331.19;;;-13.07;96.74
21240;BME280;10778;48.962;9.018;2022-12-18T02:04:27;100332.97;;;-13.03;96.40
21240;BME280;10778;48.962;9.018;2022-12-18T02:07:14;100332.09;;;-13.04;95.98
21240;BME280;10778;48.962;9.018;2022-12-18T02:10:00;100341.13;;;-13.13;95.37
21240;BME280;10778;48.962;9.018;2022-12-18T02:12:45;100345.50;;;-13.08;96.33
21240;BME280;10778;48.962;9.018;2022-12-18T02:15:19;100347.34;;;-13.02;96.44
21240;BME280;10778;48.962;9.018;2022-12-18T02:18:03;100349.97;;;-12.99;96.16
21240;BME280;10778;48.962;9.018;2022-12-18T02:20:36;100339.81;;;-12.99;95.46
21240;BME280;10778;48.962;9.018;2022-12-18T02:23:29;100341.41;;;-13.03;96.22
21240;BME280;10778;48.962;9.018;2022-12-18T02:26:26;100339.81;;;-13.01;96.71
21240;BME280;10778;48.962;9.018;2022-12-18T02:29:05;100330.78;;;-12.91;97.63
21240;BME280;10778;48.962;9.018;2022-12-18T02:31:40;100335.09;;;-12.87;98.20
21240;BME280;10778;48.962;9.018;2022-12-18T02:34:09;100335.16;;;-12.83;97.89
21240;BME280;10778;48.962;9.018;2022-12-18T02:36:40;100348.53;;;-12.89;97.54
21240;BME280;10778;48.962;9.018;2022-12-18T02:39:11;100356.94;;;-12.92;97.47
21240;BME280;10778;48.962;9.018;2022-12-18T02:41:44;100354.34;;;-12.93;96.57
21240;BME280;10778;48.962;9.018;2022-12-18T02:44:13;100359.28;;;-12.98;96.46
21240;BME280;10778;48.962;9.018;2022-12-18T02:46:43;100352.78;;;-12.88;95.97
21240;BME280;10778;48.962;9.018;2022-12-18T02:49:36;100361.03;;;-12.95;95.24
21240;BME280;10778;48.962;9.018;2022-12-18T02:57:40;100350.72;;;-13.02;95.96
21240;BME280;10778;48.962;9.018;2022-12-18T03:05:17;100353.38;;;-12.98;96.92
21240;BME280;10778;48.962;9.018;2022-12-18T03:07:53;100364.25;;;-13.01;96.52
21240;BME280;10778;48.962;9.018;2022-12-18T03:10:28;100368.44;;;-13.03;96.55
21240;BME280;10778;48.962;9.018;2022-12-18T03:13:04;100366.66;;;-13.06;96.21
21240;BME280;10778;48.962;9.018;2022-12-18T03:15:35;100363.31;;;-13.05;96.03
21240;BME280;10778;48.962;9.018;2022-12-18T03:18:12;100363.44;;;-13.00;96.38
21240;BME280;10778;48.962;9.018;2022-12-18T03:20:41;100360.06;;;-13.01;96.46
21240;BME280;10778;48.962;9.018;2022-12-18T03:23:16;100369.53;;;-12.93;97.07
21240;BME280;10778;48.962;9.018;2022-12-18T03:25:49;100362.69;;;-12.96;96.61
21240;BME280;10778;48.962;9.018;2022-12-18T03:28:20;100364.41;;;-12.95;96.95
21240;BME280;10778;48.962;9.018;2022-12-18T03:30:56;100368.56;;;-12.98;97.13
21240;BME280;10778;48.962;9.018;2022-12-18T03:33:30;100357.16;;;-13.15;96.14
21240;BME280;10778;48.962;9.018;2022-12-18T03:36:00;100360.47;;;-13.17;96.21
21240;BME280;10778;48.962;9.018;2022-12-18T03:38:27;100360.44;;;-13.19;96.61
21240;BME280;10778;48.962;9.018;2022-12-18T03:44:23;100356.03;;;-13.26;96.32
21240;BME280;10778;48.962;9.018;2022-12-18T03:52:35;100363.63;;;-13.26;96.87
21240;BME280;10778;48.962;9.018;2022-12-18T03:55:03;100363.28;;;-13.37;96.41
21240;BME280;10778;48.962;9.018;2022-12-18T03:57:32;100360.56;;;-13.45;97.50
21240;BME280;10778;48.962;9.018;2022-12-18T04:00:03;100368.16;;;-13.46;96.33
21240;BME280;10778;48.962;9.018;2022-12-18T04:02:43;100367.28;;;-13.47;96.60
21240;BME280;10778;48.962;9.018;2022-12-18T04:05:15;100364.72;;;-13.48;97.14
21240;BME280;10778;48.962;9.018;2022-12-18T04:07:44;100359.31;;;-13.29;97.35
21240;BME280;10778;48.962;9.018;2022-12-18T04:10:11;100363.78;;;-13.20;98.34
21240;BME280;10778;48.962;9.018;2022-12-18T04:12:38;100366.50;;;-13.12;98.83
21240;BME280;10778;48.962;9.018;2022-12-18T04:15:05;100363.25;;;-13.08;98.27
21240;BME280;10778;48.962;9.018;2022-12-18T04:17:32;100355.50;;;-13.14;97.25
21240;BME280;10778;48.962;9.018;2022-12-18T04:19:58;100352.97;;;-13.14;96.90
21240;BME280;10778;48.962;9.018;2022-12-18T04:22:24;100352.91;;;-13.16;97.15
21240;BME280;10778;48.962;9.018;2022-12-18T04:24:57;100356.41;;;-13.10;97.02
21240;BME280;10778;48.962;9.018;2022-12-18T04:27:30;100353.97;;;-13.07;97.77
21240;BME280;10778;48.962;9.018;2022-12-18T04:29:57;100365.66;;;-13.12;97.36
21240;BME280;10778;48.962;9.018;2022-12-18T04:32:23;100359.66;;;-13.16;97.15
21240;BME280;10778;48.962;9.018;2022-12-18T04:34:49;100368.97;;;-13.15;97.62
21240;BME280;10778;48.962;9.018;2022-12-18T04:37:16;100358.03;;;-13.14;96.87
21240;BME280;10778;48.962;9.018;2022-12-18T04:39:43;100358.13;;;-13.09;96.14
21240;BME280;10778;48.962;9.018;2022-12-18T04:42:17;100352.97;;;-13.14;95.94
21240;BME280;10778;48.962;9.018;2022-12-18T04:44:43;100350.22;;;-13.22;96.21
21240;BME280;10778;48.962;9.018;2022-12-18T04:47:10;100355.22;;;-13.23;96.92
21240;BME280;10778;48.962;9.018;2022-12-18T04:49:36;100361.97;;;-13.24;97.00
21240;BME280;10778;48.962;9.018;2022-12-18T04:52:02;100355.22;;;-13.23;97.97
21240;BME280;10778;48.962;9.018;2022-12-18T04:54:28;100359.53;;;-13.21;97.77
21240;BME280;10778;48.962;9.018;2022-12-18T04:56:55;100356.81;;;-13.27;97.12
21240;BME280;10778;48.962;9.018;2022-12-18T04:59:21;100362.59;;;-13.33;96.55
21240;BME280;10778;48.962;9.018;2022-12-18T05:01:47;100354.03;;;-13.36;97.26
21240;BME280;10778;48.962;9.018;2022-12-18T05:04:13;100340.63;;;-13.34;97.23
21240;BME280;10778;48.962;9.018;2022-12-18T05:06:39;100347.56;;;-13.26;98.12
21240;BME280;10778;48.962;9.018;2022-12-18T05:09:05;100341.66;;;-13.25;97.85
21240;BME280;10778;48.962;9.018;2022-12-18T05:11:31;100352.41;;;-13.34;97.41
21240;BME280;10778;48.962;9.018;2022-12-18T05:13:57;100357.38;;;-13.37;97.18
21240;BME280;10778;48.962;9.018;2022-12-18T05:16:23;100367.53;;;-13.36;96.93
21240;BME280;10778;48.962;9.018;2022-12-18T05:18:49;100371.03;;;-13.32;97.81
21240;BME280;10778;48.962;9.018;2022-12-18T05:21:15;100366.16;;;-13.26;98.01
21240;BME280;10778;48.962;9.018;2022-12-18T05:23:41;100371.25;;;-13.24;97.99
21240;BME280;10778;48.962;9.018;2022-12-18T05:26:07;100378.69;;;-13.29;97.83
21240;BME280;10778;48.962;9.018;2022-12-18T05:28:35;100376.88;;;-13.35;97.46
21240;BME280;10778;48.962;9.018;2022-12-18T05:31:02;100387.78;;;-13.36;97.41
21240;BME280;10778;48.962;9.018;2022-12-18T05:33:31;100394.41;;;-13.41;97.30
21240;BME280;10778;48.962;9.018;2022-12-18T05:36:00;100387.44;;;-13.50;97.31
21240;BME280;10778;48.962;9.018;2022-12-18T05:38:28;100391.00;;;-13.43;97.29
21240;BME280;10778;48.962;9.018;2022-12-18T05:40:55;100394.69;;;-13.32;97.81
21240;BME280;10778;48.962;9.018;2022-12-18T05:43:23;100387.75;;;-13.07;97.68
21240;BME280;10778;48.962;9.018;2022-12-18T05:45:49;100377.97;;;-12.94;96.60
21240;BME280;10778;48.962;9.018;2022-12-18T05:48:17;100375.84;;;-13.09;97.02
21240;BME280;10778;48.962;9.018;2022-12-18T05:50:45;100388.34;;;-13.16;97.48
21240;BME280;10778;48.962;9.018;2022-12-18T05:53:12;100387.47;;;-13.18;98.37
21240;BME280;10778;48.962;9.018;2022-12-18T05:55:40;100384.59;;;-13.30;98.00
21240;BME280;10778;48.962;9.018;2022-12-18T05:58:08;100379.88;;;-13.18;97.91
21240;BME280;10778;48.962;9.018;2022-12-18T06:00:36;100386.22;;;-13.32;96.86
21240;BME280;10778;48.962;9.018;2022-12-18T06:03:06;100386.00;;;-13.40;97.25
21240;BME280;10778;48.962;9.018;2022-12-18T06:05:37;100391.97;;;-13.38;98.37
21240;BME280;10778;48.962;9.018;2022-12-18T06:08:04;100390.31;;;-13.37;98.19
21240;BME280;10778;48.962;9.018;2022-12-18T06:10:31;100385.25;;;-13.37;98.67
21240;BME280;10778;48.962;9.018;2022-12-18T06:12:58;100385.19;;;-13.39;97.89
21240;BME280;10778;48.962;9.018;2022-12-18T06:15:24;100387.13;;;-13.30;98.76
21240;BME280;10778;48.962;9.018;2022-12-18T06:17:50;100388.00;;;-13.30;98.93
21240;BME280;10778;48.962;9.018;2022-12-18T06:20:16;100389.63;;;-13.32;97.70
21240;BME280;10778;48.962;9.018;2022-12-18T06:22:42;100383.81;;;-13.27;98.65
21240;BME280;10778;48.962;9.018;2022-12-18T06:25:08;100389.78;;;-13.25;97.84
21240;BME280;10778;48.962;9.018;2022-12-18T06:27:34;100393.00;;;-13.31;97.53
21240;BME280;10778;48.962;9.018;2022-12-18T06:30:00;100399.66;;;-13.35;97.12
21240;BME280;10778;48.962;9.018;2022-12-18T06:32:27;100406.53;;;-13.31;97.83
21240;BME280;10778;48.962;9.018;2022-12-18T06:34:53;100408.28;;;-13.28;98.95
21240;BME280;10778;48.962;9.018;2022-12-18T06:37:21;100406.66;;;-13.26;98.84
21240;BME280;10778;48.962;9.018;2022-12-18T06:39:49;100417.69;;;-13.24;98.68
21240;BME280;10778;48.962;9.018;2022-12-18T06:42:15;100418.66;;;-13.19;98.95
21240;BME280;10778;48.962;9.018;2022-12-18T06:44:41;100412.63;;;-13.24;98.37
21240;BME280;10778;48.962;9.018;2022-12-18T06:47:07;100409.00;;;-13.32;98.43
21240;BME280;10778;48.962;9.018;2022-12-18T06:49:33;100409.00;;;-13.32;98.38
21240;BME280;10778;48.962;9.018;2022-12-18T06:51:59;100408.16;;;-13.33;98.42
21240;BME280;10778;48.962;9.018;2022-12-18T06:54:25;100408.16;;;-13.33;98.43
21240;BME280;10778;48.962;9.018;2022-12-18T06:56:51;100411.53;;;-13.32;98.64
21240;BME280;10778;48.962;9.018;2022-12-18T06:59:17;100423.34;;;-13.33;98.01
21240;BME280;10778;48.962;9.018;2022-12-18T07:01:43;100421.53;;;-13.37;98.04
21240;BME280;10778;48.962;9.018;2022-12-18T07:04:10;100421.41;;;-13.41;97.78
21240;BME280;10778;48.962;9.018;2022-12-18T07:06:36;100424.75;;;-13.43;97.41
21240;BME280;10778;48.962;9.018;2022-12-18T07:09:02;100430.81;;;-13.37;97.58
21240;BME280;10778;48.962;9.018;2022-12-18T07:11:28;100425.88;;;-13.33;98.44
21240;BME280;10778;48.962;9.018;2022-12-18T07:13:54;100427.72;;;-13.27;97.82
21240;BME280;10778;48.962;9.018;2022-12-18T07:16:20;100434.75;;;-13.17;98.49
21240;BME280;10778;48.962;9.018;2022-12-18T07:18:46;100434.69;;;-13.20;97.24
21240;BME280;10778;48.962;9.018;2022-12-18T07:21:18;100438.94;;;-13.19;97.19
21240;BME280;10778;48.962;9.018;2022-12-18T07:23:44;100444.25;;;-13.09;97.47
21240;BME280;10778;48.962;9.018;2022-12-18T07:26:16;100452.03;;;-13.03;97.03
21240;BME280;10778;48.962;9.018;2022-12-18T07:28:42;100455.53;;;-12.99;96.99
21240;BME280;10778;48.962;9.018;2022-12-18T07:31:12;100458.34;;;-12.89;96.87
21240;BME280;10778;48.962;9.018;2022-12-18T07:33:38;100459.25;;;-12.87;96.08
21240;BME280;10778;48.962;9.018;2022-12-18T07:36:07;100455.31;;;-12.75;95.02
21240;BME280;10778;48.962;9.018;2022-12-18T07:38:34;100450.84;;;-12.84;93.85
21240;BME280;10778;48.962;9.018;2022-12-18T07:41:02;100436.47;;;-12.85;93.47
21240;BME280;10778;48.962;9.018;2022-12-18T07:43:28;100442.56;;;-12.78;93.83
21240;BME280;10778;48.962;9.018;2022-12-18T07:45:54;100440.09;;;-12.77;93.86
21240;BME280;10778;48.962;9.018;2022-12-18T07:48:21;100432.69;;;-12.69;94.05
21240;BME280;10778;48.962;9.018;2022-12-18T07:50:47;100442.91;;;-12.66;94.17
21240;BME280;10778;48.962;9.018;2022-12-18T07:53:13;100440.00;;;-12.48;93.71
21240;BME280;10778;48.962;9.018;2022-12-18T07:55:41;100441.59;;;-12.51;92.68
21240;BME280;10778;48.962;9.018;2022-12-18T07:58:07;100440.81;;;-12.49;92.78
21240;BME280;10778;48.962;9.018;2022-12-18T08:00:34;100443.44;;;-12.44;93.57
21240;BME280;10778;48.962;9.018;2022-12-18T08:03:01;100445.56;;;-12.27;94.61
21240;BME280;10778;48.962;9.018;2022-12-18T08:05:27;100447.53;;;-12.16;94.95
21240;BME280;10778;48.962;9.018;2022-12-18T08:07:54;100461.34;;;-12.04;95.15
21240;BME280;10778;48.962;9.018;2022-12-18T08:10:21;100466.06;;;-11.45;94.40
21240;BME280;10778;48.962;9.018;2022-12-18T08:12:50;100466.09;;;-10.60;92.98
21240;BME280;10778;48.962;9.018;2022-12-18T08:15:17;100464.53;;;-10.01;90.57
21240;BME280;10778;48.962;9.018;2022-12-18T08:17:43;100452.53;;;-8.88;85.97
21240;BME280;10778;48.962;9.018;2022-12-18T08:20:15;100451.66;;;-7.96;82.58
21240;BME280;10778;48.962;9.018;2022-12-18T08:22:41;100448.63;;;-7.42;79.44
21240;BME280;10778;48.962;9.018;2022-12-18T08:25:08;100459.09;;;-6.95;77.35
21240;BME280;10778;48.962;9.018;2022-12-18T08:27:34;100446.47;;;-6.33;74.40
21240;BME280;10778;48.962;9.018;2022-12-18T08:30:00;100449.59;;;-7.20;74.95
21240;BME280;10778;48.962;9.018;2022-12-18T08:32:27;100446.22;;;-7.16;76.22
21240;BME280;10778;48.962;9.018;2022-12-18T08:34:53;100437.91;;;-6.52;74.52
21240;BME280;10778;48.962;9.018;2022-12-18T08:37:19;100439.63;;;-5.71;71.29
21240;BME280;10778;48.962;9.018;2022-12-18T08:39:45;100443.03;;;-5.75;70.40
21240;BME280;10778;48.962;9.018;2022-12-18T08:42:11;100437.88;;;-5.53;70.30
21240;BME280;10778;48.962;9.018;2022-12-18T08:44:59;100442.84;;;-4.98;70.19
21240;BME280;10778;48.962;9.018;2022-12-18T08:47:25;100440.81;;;-4.39;68.92
21240;BME280;10778;48.962;9.018;2022-12-18T08:49:51;100439.66;;;-3.96;66.88
21240;BME280;10778;48.962;9.018;2022-12-18T08:52:17;100439.34;;;-3.62;65.39
21240;BME280;10778;48.962;9.018;2022-12-18T08:54:43;100434.69;;;-3.25;64.35
21240;BME280;10778;48.962;9.018;2022-12-18T08:57:09;100420.63;;;-2.96;63.57
21240;BME280;10778;48.962;9.018;2022-12-18T08:59:35;100412.38;;;-3.23;64.13
21240;BME280;10778;48.962;9.018;2022-12-18T09:02:01;100410.91;;;-2.74;63.30
21240;BME280;10778;48.962;9.018;2022-12-18T09:04:27;100415.09;;;-2.67;63.45
21240;BME280;10778;48.962;9.018;2022-12-18T09:06:53;100413.94;;;-2.46;63.49
21240;BME280;10778;48.962;9.018;2022-12-18T09:09:19;100405.09;;;-2.29;62.21
21240;BME280;10778;48.962;9.018;2022-12-18T09:11:45;100403.34;;;-2.27;61.65
21240;BME280;10778;48.962;9.018;2022-12-18T09:14:11;100413.53;;;-2.19;61.86
21240;BME280;10778;48.962;9.018;2022-12-18T09:16:37;100406.09;;;-1.36;76.51
21240;BME280;10778;48.962;9.018;2022-12-18T09:19:04;100400.19;;;-0.98;62.93
21240;BME280;10778;48.962;9.018;2022-12-18T09:21:32;100391.06;;;-0.02;64.93
21240;BME280;10778;48.962;9.018;2022-12-18T09:23:59;100393.00;;;-0.10;59.98
21240;BME280;10778;48.962;9.018;2022-12-18T09:26:26;100388.19;;;0.11;58.65
21240;BME280;10778;48.962;9.018;2022-12-18T09:28:53;100380.28;;;0.80;58.31
21240;BME280;10778;48.962;9.018;2022-12-18T09:31:21;100387.59;;;1.26;56.84
21240;BME280;10778;48.962;9.018;2022-12-18T09:33:48;100396.13;;;1.30;56.02
21240;BME280;10778;48.962;9.018;2022-12-18T09:36:15;100385.84;;;1.26;56.16
21240;BME280;10778;48.962;9.018;2022-12-18T09:38:42;100384.34;;;0.89;55.93
21240;BME280;10778;48.962;9.018;2022-12-18T09:43:57;100396.81;;;-0.25;57.60
21240;BME280;10778;48.962;9.018;2022-12-18T09:46:30;100378.06;;;0.02;56.75
21240;BME280;10778;48.962;9.018;2022-12-18T09:49:01;100381.28;;;-0.23;58.69
21240;BME280;10778;48.962;9.018;2022-12-18T09:51:32;100393.00;;;0.25;57.04
21240;BME280;10778;48.962;9.018;2022-12-18T09:54:06;100396.00;;;0.42;57.01
21240;BME280;10778;48.962;9.018;2022-12-18T09:56:40;100399.72;;;-0.03;58.24
21240;BME280;10778;48.962;9.018;2022-12-18T09:59:21;100394.44;;;0.02;58.63
21240;BME280;10778;48.962;9.018;2022-12-18T10:01:49;100395.41;;;0.31;58.32
21240;BME280;10778;48.962;9.018;2022-12-18T10:04:15;100402.22;;;0.35;57.94
21240;BME280;10778;48.962;9.018;2022-12-18T10:17:35;100414.50;;;0.92;58.34
21240;BME280;10778;48.962;9.018;2022-12-18T10:20:17;100409.06;;;1.60;57.13
21240;BME280;10778;48.962;9.018;2022-12-18T10:23:11;100409.88;;;1.32;57.79
21240;BME280;10778;48.962;9.018;2022-12-18T10:28:19;100400.59;;;1.53;57.17
21240;BME280;10778;48.962;9.018;2022-12-18T10:30:46;100398.88;;;0.95;59.05
21240;BME280;10778;48.962;9.018;2022-12-18T10:33:18;100398.63;;;1.33;58.35
21240;BME280;10778;48.962;9.018;2022-12-18T10:35:45;100395.13;;;1.05;58.55
21240;BME280;10778;48.962;9.018;2022-12-18T10:40:52;100390.78;;;0.44;61.69
21240;BME280;10778;48.962;9.018;2022-12-18T10:43:34;100402.50;;;-0.10;63.46
21240;BME280;10778;48.962;9.018;2022-12-18T10:48:40;100400.50;;;-0.73;66.91
21240;BME280;10778;48.962;9.018;2022-12-18T10:51:07;100402.56;;;-0.50;64.69
21240;BME280;10778;48.962;9.018;2022-12-18T10:53:36;100391.16;;;-0.79;66.67
21240;BME280;10778;48.962;9.018;2022-12-18T10:56:04;100394.19;;;-0.23;66.03
21240;BME280;10778;48.962;9.018;2022-12-18T10:58:36;100386.47;;;-0.25;66.26
21240;BME280;10778;48.962;9.018;2022-12-18T11:01:03;100388.66;;;-0.08;65.51
21240;BME280;10778;48.962;9.018;2022-12-18T11:04:07;100392.69;;;-0.70;66.17
21240;BME280;10778;48.962;9.018;2022-12-18T11:06:27;100390.06;;;-0.68;67.76
21240;BME280;10778;48.962;9.018;2022-12-18T11:08:59;100383.69;;;-0.93;69.67
21240;BME280;10778;48.962;9.018;2022-12-18T11:11:26;100381.44;;;-1.08;71.12
21240;BME280;10778;48.962;9.018;2022-12-18T11:16:28;100379.84;;;-0.37;68.50
21240;BME280;10778;48.962;9.018;2022-12-18T11:19:13;100370.47;;;-0.41;67.91
21240;BME280;10778;48.962;9.018;2022-12-18T11:21:41;100358.91;;;0.09;67.50
21240;BME280;10778;48.962;9.018;2022-12-18T11:24:24;100362.06;;;0.20;67.19
21240;BME280;10778;48.962;9.018;2022-12-18T11:26:52;100365.78;;;-0.25;67.33
21240;BME280;10778;48.962;9.018;2022-12-18T11:29:23;100367.25;;;-1.31;71.79
21240;BME280;10778;48.962;9.018;2022-12-18T11:31:50;100364.84;;;-0.98;72.41
21240;BME280;10778;48.962;9.018;2022-12-18T11:34:34;100359.28;;;-0.79;70.88
21240;BME280;10778;48.962;9.018;2022-12-18T11:37:02;100356.38;;;-1.05;71.68
21240;BME280;10778;48.962;9.018;2022-12-18T11:40:03;100351.53;;;-1.20;72.07
21240;BME280;10778;48.962;9.018;2022-12-18T11:42:40;100346.28;;;-1.16;71.66
21240;BME280;10778;48.962;9.018;2022-12-18T11:48:01;100348.94;;;-1.20;72.34
21240;BME280;10778;48.962;9.018;2022-12-18T11:50:41;100349.75;;;-1.61;74.46
21240;BME280;10778;48.962;9.018;2022-12-18T11:53:13;100340.69;;;-1.38;74.53
21240;BME280;10778;48.962;9.018;2022-12-18T11:55:47;100343.72;;;-1.60;74.32
21240;BME280;10778;48.962;9.018;2022-12-18T12:03:54;100334.72;;;-1.84;74.72
21240;BME280;10778;48.962;9.018;2022-12-18T12:09:43;100338.13;;;-2.32;77.62
21240;BME280;10778;48.962;9.018;2022-12-18T12:18:08;100318.25;;;-1.78;76.30
21240;BME280;10778;48.962;9.018;2022-12-18T12:26:10;100314.06;;;-1.82;76.68
21240;BME280;10778;48.962;9.018;2022-12-18T12:29:00;100317.50;;;-1.83;75.73
21240;BME280;10778;48.962;9.018;2022-12-18T12:31:41;100319.03;;;-1.73;76.42
21240;BME280;10778;48.962;9.018;2022-12-18T12:34:33;100317.28;;;-1.71;77.12
21240;BME280;10778;48.962;9.018;2022-12-18T12:37:26;100321.66;;;-1.76;77.06
21240;BME280;10778;48.962;9.018;2022-12-18T12:39:54;100322.53;;;-1.77;78.17
21240;BME280;10778;48.962;9.018;2022-12-18T12:42:43;100325.84;;;-1.69;77.67
21240;BME280;10778;48.962;9.018;2022-12-18T12:45:37;100332.66;;;-1.66;77.14
21240;BME280;10778;48.962;9.018;2022-12-18T12:48:09;100337.75;;;-1.63;77.13
21240;BME280;10778;48.962;9.018;2022-12-18T12:50:37;100332.03;;;-1.34;75.82
21240;BME280;10778;48.962;9.018;2022-12-18T12:53:07;100336.22;;;-1.28;75.92
21240;BME280;10778;48.962;9.018;2022-12-18T12:55:35;100326.63;;;-1.23;75.66
21240;BME280;10778;48.962;9.018;2022-12-18T12:58:36;100328.69;;;-1.39;77.98
21240;BME280;10778;48.962;9.018;2022-12-18T13:06:50;100339.94;;;-1.41;76.42
21240;BME280;10778;48.962;9.018;2022-12-18T13:09:19;100341.44;;;-1.31;76.44
21240;BME280;10778;48.962;9.018;2022-12-18T13:11:46;100330.50;;;-1.42;77.29
21240;BME280;10778;48.962;9.018;2022-12-18T13:14:40;100323.50;;;-1.37;76.78
21240;BME280;10778;48.962;9.018;2022-12-18T13:19:48;100315.44;;;-1.22;76.23
21240;BME280;10778;48.962;9.018;2022-12-18T13:22:22;100310.50;;;-1.34;78.22
21240;BME280;10778;48.962;9.018;2022-12-18T13:24:49;100318.50;;;-1.47;77.96
21240;BME280;10778;48.962;9.018;2022-12-18T13:43:23;100294.09;;;-1.74;79.57
21240;BME280;10778;48.962;9.018;2022-12-18T13:46:27;100284.00;;;-1.85;80.01
21240;BME280;10778;48.962;9.018;2022-12-18T13:51:42;100278.53;;;-2.15;81.75
21240;BME280;10778;48.962;9.018;2022-12-18T13:56:50;100288.53;;;-1.96;82.31
21240;BME280;10778;48.962;9.018;2022-12-18T14:04:21;100295.13;;;-2.29;82.69
21240;BME280;10778;48.962;9.018;2022-12-18T14:06:51;100290.22;;;-2.44;83.24
21240;BME280;10778;48.962;9.018;2022-12-18T14:09:23;100284.31;;;-2.52;84.16
21240;BME280;10778;48.962;9.018;2022-12-18T14:11:51;100283.53;;;-2.56;83.88
21240;BME280;10778;48.962;9.018;2022-12-18T14:14:19;100283.91;;;-2.79;85.30
21240;BME280;10778;48.962;9.018;2022-12-18T14:16:46;100293.38;;;-2.81;85.30
21240;BME280;10778;48.962;9.018;2022-12-18T14:19:17;100294.84;;;-2.65;85.95
21240;BME280;10778;48.962;9.018;2022-12-18T14:21:47;100297.38;;;-2.63;85.02
21240;BME280;10778;48.962;9.018;2022-12-18T14:24:18;100304.19;;;-2.59;84.73
21240;BME280;10778;48.962;9.018;2022-12-18T14:26:46;100297.66;;;-2.80;85.30
21240;BME280;10778;48.962;9.018;2022-12-18T14:29:25;100304.69;;;-2.93;85.37
21240;BME280;10778;48.962;9.018;2022-12-18T14:32:10;100293.78;;;-3.08;86.03
21240;BME280;10778;48.962;9.018;2022-12-18T14:34:37;100291.41;;;-3.23;87.02
21240;BME280;10778;48.962;9.018;2022-12-18T14:37:04;100282.91;;;-3.30;87.77
21240;BME280;10778;48.962;9.018;2022-12-18T14:39:30;100296.66;;;-3.34;87.71
21240;BME280;10778;48.962;9.018;2022-12-18T14:41:56;100297.53;;;-3.35;88.67
21240;BME280;10778;48.962;9.018;2022-12-18T14:44:22;100301.94;;;-3.42;88.88